sensor_id;sensor_type;location;lat;lon;timestamp;pressure;altitude;pressure_sealevel;temperature;humidity
54042;BME280;41156;51.508;5.406;2022-12-29T00:00:24;99970.97;;;10.02;100.00
54042;BME280;41156;51.508;5.406;2022-12-29T00:03:24;99965.00;;;9.99;100.00
54042;BME280;41156;51.508;5.406;2022-12-29T00:06:25;99964.78;;;10.01;100.00
54042;BME280;41156;51.508;5.406;2022-12-29T00:09:26;99977.44;;;10.00;100.00
54042;BME280;41156;51.508;5.406;2022-12-29T00:12:26;99962.31;;;9.99;100.00
54042;BME280;41156;51.508;5.406;2022-12-29T00:15:47;99950.91;;;9.97;100.00
54042;BME280;41156;51.508;5.406;2022-12-29T00:18:47;99937.50;;;9.91;100.00
54042;BME280;41156;51.508;5.406;2022-12-29T00:21:47;99942.78;;;9.86;100.00
54042;BME280;41156;51.508;5.406;2022-12-29T00:25:08;99936.44;;;9.80;100.00
54042;BME280;41156;51.508;5.406;2022-12-29T00:28:28;99924.72;;;9.74;100.00
54042;BME280;41156;51.508;5.406;2022-12-29T00:31:47;99932.69;;;9.69;100.00
54042;BME280;41156;51.508;5.406;2022-12-29T00:35:12;99935.72;;;9.61;100.00
54042;BME280;41156;51.508;5.406;2022-12-29T00:38:13;99931.00;;;9.56;100.00
54042;BME280;41156;51.508;5.406;2022-12-29T00:41:33;99922.78;;;9.51;100.00
54042;BME280;41156;51.508;5.406;2022-12-29T00:44:52;99909.53;;;9.50;100.00
54042;BME280;41156;51.508;5.406;2022-12-29T00:47:52;99913.50;;;9.47;100.00
54042;BME280;41156;51.508;5.406;2022-12-29T00:50:55;99900.47;;;9.44;100.00
54042;BME280;41156;51.508;5.406;2022-12-29T00:53:56;99909.41;;;9.44;100.00
54042;BME280;41156;51.508;5.406;2022-12-29T00:56:56;99897.78;;;9.44;100.00
54042;BME280;41156;51.508;5.406;2022-12-29T00:59:57;99904.38;;;9.48;100.00
54042;BME280;41156;51.508;5.406;2022-12-29T01:02:57;99912.59;;;9.53;100.00
54042;BME280;41156;51.508;5.406;2022-12-29T01:06:00;99892.19;;;9.57;100.00
54042;BME280;41156;51.508;5.406;2022-12-29T01:09:00;99890.91;;;9.60;100.00
54042;BME280;41156;51.508;5.406;2022-12-29T01:12:19;99873.41;;;9.51;100.00
54042;BME280;41156;51.508;5.406;2022-12-29T01:15:40;99877.41;;;9.48;100.00
54042;BME280;41156;51.508;5.406;2022-12-29T01:18:40;99872.00;;;9.48;100.00
54042;BME280;41156;51.508;5.406;2022-12-29T01:21:40;99881.50;;;9.51;100.00
54042;BME280;41156;51.508;5.406;2022-12-29T01:24:40;99873.19;;;9.52;100.00
54042;BME280;41156;51.508;5.406;2022-12-29T01:27:41;99870.94;;;9.49;100.00
54042;BME280;41156;51.508;5.406;2022-12-29T01:30:41;99863.09;;;9.48;100.00
54042;BME280;41156;51.508;5.406;2022-12-29T01:33:42;99867.06;;;9.45;100.00
54042;BME280;41156;51.508;5.406;2022-12-29T01:36:43;99866.03;;;9.46;100.00
54042;BME280;41156;51.508;5.406;2022-12-29T01:39:43;99861.91;;;9.43;100.00
54042;BME280;41156;51.508;5.406;2022-12-29T01:42:43;99863.69;;;9.50;100.00
54042;BME280;41156;51.508;5.406;2022-12-29T01:45:48;99865.22;;;9.57;100.00
54042;BME280;41156;51.508;5.406;2022-12-29T01:49:10;99868.28;;;9.61;100.00
54042;BME280;41156;51.508;5.406;2022-12-29T01:52:12;99877.09;;;9.68;100.00
54042;BME280;41156;51.508;5.406;2022-12-29T01:55:12;99873.94;;;9.71;100.00
54042;BME280;41156;51.508;5.406;2022-12-29T01:58:14;99874.97;;;9.70;100.00
54042;BME280;41156;51.508;5.406;2022-12-29T02:01:18;99875.66;;;9.77;100.00
54042;BME280;41156;51.508;5.406;2022-12-29T02:04:19;99868.19;;;9.79;100.00
54042;BME280;41156;51.508;5.406;2022-12-29T02:07:24;99885.41;;;9.78;100.00
54042;BME280;41156;51.508;5.406;2022-12-29T02:10:28;99860.91;;;9.80;100.00
54042;BME280;41156;51.508;5.406;2022-12-29T02:13:29;99858.44;;;9.78;100.00
54042;BME280;41156;51.508;5.406;2022-12-29T02:16:40;99870.16;;;9.84;100.00
54042;BME280;41156;51.508;5.406;2022-12-29T02:32:50;99853.28;;;10.00;100.00
54042;BME280;41156;51.508;5.406;2022-12-29T02:39:20;99835.56;;;9.93;100.00
54042;BME280;41156;51.508;5.406;2022-12-29T02:42:46;99830.66;;;9.90;100.00
54042;BME280;41156;51.508;5.406;2022-12-29T02:45:58;99837.31;;;9.87;100.00
54042;BME280;41156;51.508;5.406;2022-12-29T02:49:15;99852.34;;;9.83;100.00
54042;BME280;41156;51.508;5.406;2022-12-29T02:52:24;99838.63;;;9.85;100.00
54042;BME280;41156;51.508;5.406;2022-12-29T02:55:26;99837.78;;;9.84;100.00
54042;BME280;41156;51.508;5.406;2022-12-29T02:58:26;99830.53;;;9.85;100.00
54042;BME280;41156;51.508;5.406;2022-12-29T03:01:45;99822.56;;;9.78;100.00
54042;BME280;41156;51.508;5.406;2022-12-29T03:08:35;99818.56;;;9.69;100.00
54042;BME280;41156;51.508;5.406;2022-12-29T03:12:02;99837.09;;;9.65;100.00
54042;BME280;41156;51.508;5.406;2022-12-29T03:15:15;99825.25;;;9.66;100.00
54042;BME280;41156;51.508;5.406;2022-12-29T03:18:47;99828.75;;;9.67;100.00
54042;BME280;41156;51.508;5.406;2022-12-29T03:21:57;99823.72;;;9.70;100.00
54042;BME280;41156;51.508;5.406;2022-12-29T03:25:30;99820.31;;;9.75;100.00
54042;BME280;41156;51.508;5.406;2022-12-29T03:28:36;99821.13;;;9.75;100.00
54042;BME280;41156;51.508;5.406;2022-12-29T03:31:38;99818.19;;;9.77;100.00
54042;BME280;41156;51.508;5.406;2022-12-29T03:34:39;99822.56;;;9.78;100.00
54042;BME280;41156;51.508;5.406;2022-12-29T03:37:44;99806.84;;;9.75;100.00
54042;BME280;41156;51.508;5.406;2022-12-29T03:40:50;99827.09;;;9.66;100.00
54042;BME280;41156;51.508;5.406;2022-12-29T03:43:51;99821.47;;;9.55;100.00
54042;BME280;41156;51.508;5.406;2022-12-29T03:46:52;99822.03;;;9.45;100.00
54042;BME280;41156;51.508;5.406;2022-12-29T03:49:53;99814.91;;;9.39;100.00
54042;BME280;41156;51.508;5.406;2022-12-29T03:52:53;99826.38;;;9.35;100.00
54042;BME280;41156;51.508;5.406;2022-12-29T03:55:53;99819.09;;;9.35;100.00
54042;BME280;41156;51.508;5.406;2022-12-29T03:58:54;99825.56;;;9.34;100.00
54042;BME280;41156;51.508;5.406;2022-12-29T04:01:54;99841.88;;;9.39;100.00
54042;BME280;41156;51.508;5.406;2022-12-29T04:04:54;99851.59;;;9.40;100.00
54042;BME280;41156;51.508;5.406;2022-12-29T04:07:55;99843.72;;;9.39;100.00
54042;BME280;41156;51.508;5.406;2022-12-29T04:10:55;99814.19;;;9.44;100.00
54042;BME280;41156;51.508;5.406;2022-12-29T04:13:55;99833.56;;;9.41;100.00
54042;BME280;41156;51.508;5.406;2022-12-29T04:16:56;99850.66;;;9.35;100.00
54042;BME280;41156;51.508;5.406;2022-12-29T04:19:56;99853.19;;;9.18;100.00
54042;BME280;41156;51.508;5.406;2022-12-29T04:23:16;99860.75;;;9.09;100.00
54042;BME280;41156;51.508;5.406;2022-12-29T04:26:16;99863.09;;;9.05;100.00
54042;BME280;41156;51.508;5.406;2022-12-29T04:29:17;99856.53;;;9.01;100.00
54042;BME280;41156;51.508;5.406;2022-12-29T04:32:17;99855.09;;;8.99;100.00
54042;BME280;41156;51.508;5.406;2022-12-29T04:35:17;99866.56;;;8.94;100.00
54042;BME280;41156;51.508;5.406;2022-12-29T04:38:18;99858.34;;;8.89;100.00
54042;BME280;41156;51.508;5.406;2022-12-29T04:41:18;99870.41;;;8.86;100.00
54042;BME280;41156;51.508;5.406;2022-12-29T04:44:18;99855.50;;;8.84;100.00
54042;BME280;41156;51.508;5.406;2022-12-29T04:47:19;99872.38;;;8.79;100.00
54042;BME280;41156;51.508;5.406;2022-12-29T04:50:19;99890.38;;;8.79;100.00
54042;BME280;41156;51.508;5.406;2022-12-29T04:53:19;99892.13;;;8.73;100.00
54042;BME280;41156;51.508;5.406;2022-12-29T04:56:19;99891.59;;;8.64;100.00
54042;BME280;41156;51.508;5.406;2022-12-29T04:59:20;99884.19;;;8.60;100.00
54042;BME280;41156;51.508;5.406;2022-12-29T05:02:20;99884.34;;;8.65;100.00
54042;BME280;41156;51.508;5.406;2022-12-29T05:05:20;99902.13;;;8.66;100.00
54042;BME280;41156;51.508;5.406;2022-12-29T05:08:22;99913.75;;;8.66;100.00
54042;BME280;41156;51.508;5.406;2022-12-29T05:11:22;99905.06;;;8.64;100.00
54042;BME280;41156;51.508;5.406;2022-12-29T05:14:22;99923.09;;;8.64;100.00
54042;BME280;41156;51.508;5.406;2022-12-29T05:17:23;99924.81;;;8.58;100.00
54042;BME280;41156;51.508;5.406;2022-12-29T05:20:23;99927.94;;;8.55;100.00
54042;BME280;41156;51.508;5.406;2022-12-29T05:23:23;99932.53;;;8.55;100.00
54042;BME280;41156;51.508;5.406;2022-12-29T05:26:23;99939.09;;;8.59;100.00
54042;BME280;41156;51.508;5.406;2022-12-29T05:29:24;99941.13;;;8.63;100.00
54042;BME280;41156;51.508;5.406;2022-12-29T05:32:25;99931.53;;;8.67;100.00
54042;BME280;41156;51.508;5.406;2022-12-29T05:35:25;99935.66;;;8.70;100.00
54042;BME280;41156;51.508;5.406;2022-12-29T05:38:25;99936.03;;;8.74;100.00
54042;BME280;41156;51.508;5.406;2022-12-29T05:41:25;99950.09;;;8.76;100.00
54042;BME280;41156;51.508;5.406;2022-12-29T05:44:26;99953.41;;;8.78;100.00
54042;BME280;41156;51.508;5.406;2022-12-29T05:47:26;99959.16;;;8.81;100.00
54042;BME280;41156;51.508;5.406;2022-12-29T05:50:26;99969.00;;;8.87;100.00
54042;BME280;41156;51.508;5.406;2022-12-29T05:53:27;99963.19;;;8.91;100.00
54042;BME280;41156;51.508;5.406;2022-12-29T05:56:27;99961.91;;;8.93;100.00
54042;BME280;41156;51.508;5.406;2022-12-29T05:59:27;99973.44;;;9.00;100.00
54042;BME280;41156;51.508;5.406;2022-12-29T06:02:27;99965.50;;;9.05;100.00
54042;BME280;41156;51.508;5.406;2022-12-29T06:05:28;99966.94;;;9.08;100.00
54042;BME280;41156;51.508;5.406;2022-12-29T06:08:28;99958.38;;;9.11;100.00
54042;BME280;41156;51.508;5.406;2022-12-29T06:11:28;99966.47;;;9.11;100.00
54042;BME280;41156;51.508;5.406;2022-12-29T06:14:28;99963.78;;;9.11;100.00
54042;BME280;41156;51.508;5.406;2022-12-29T06:17:29;99972.09;;;9.10;100.00
54042;BME280;41156;51.508;5.406;2022-12-29T06:20:29;99963.56;;;9.13;100.00
54042;BME280;41156;51.508;5.406;2022-12-29T06:23:30;99959.56;;;9.15;100.00
54042;BME280;41156;51.508;5.406;2022-12-29T06:26:30;99945.50;;;9.13;100.00
54042;BME280;41156;51.508;5.406;2022-12-29T06:29:31;99954.19;;;9.15;100.00
54042;BME280;41156;51.508;5.406;2022-12-29T06:32:31;99954.19;;;9.15;100.00
54042;BME280;41156;51.508;5.406;2022-12-29T06:35:31;99959.06;;;9.06;100.00
54042;BME280;41156;51.508;5.406;2022-12-29T06:38:32;99955.63;;;8.99;100.00
54042;BME280;41156;51.508;5.406;2022-12-29T06:41:32;99953.03;;;8.93;100.00
54042;BME280;41156;51.508;5.406;2022-12-29T06:44:32;99950.78;;;8.89;100.00
54042;BME280;41156;51.508;5.406;2022-12-29T06:47:34;99960.13;;;8.87;100.00
54042;BME280;41156;51.508;5.406;2022-12-29T06:50:35;99953.09;;;8.86;100.00
54042;BME280;41156;51.508;5.406;2022-12-29T06:53:35;99954.38;;;8.83;100.00
54042;BME280;41156;51.508;5.406;2022-12-29T06:56:35;99957.66;;;8.85;100.00
54042;BME280;41156;51.508;5.406;2022-12-29T06:59:35;99953.78;;;8.81;100.00
54042;BME280;41156;51.508;5.406;2022-12-29T07:02:36;99972.47;;;8.76;100.00
54042;BME280;41156;51.508;5.406;2022-12-29T07:05:36;99971.56;;;8.82;100.00
54042;BME280;41156;51.508;5.406;2022-12-29T07:08:36;99977.72;;;8.89;100.00
54042;BME280;41156;51.508;5.406;2022-12-29T07:11:37;99966.16;;;9.01;100.00
54042;BME280;41156;51.508;5.406;2022-12-29T07:14:37;99988.34;;;9.03;100.00
54042;BME280;41156;51.508;5.406;2022-12-29T07:17:38;99988.34;;;9.03;100.00
54042;BME280;41156;51.508;5.406;2022-12-29T07:20:38;99992.06;;;9.02;100.00
54042;BME280;41156;51.508;5.406;2022-12-29T07:23:38;100001.19;;;9.01;100.00
54042;BME280;41156;51.508;5.406;2022-12-29T07:26:38;100000.16;;;9.02;100.00
54042;BME280;41156;51.508;5.406;2022-12-29T07:29:39;100023.16;;;9.04;100.00
54042;BME280;41156;51.508;5.406;2022-12-29T07:32:39;100004.97;;;9.00;100.00
54042;BME280;41156;51.508;5.406;2022-12-29T07:35:39;100021.19;;;8.93;100.00
54042;BME280;41156;51.508;5.406;2022-12-29T07:38:40;100010.78;;;8.97;100.00
54042;BME280;41156;51.508;5.406;2022-12-29T07:41:41;100013.72;;;8.95;100.00
54042;BME280;41156;51.508;5.406;2022-12-29T07:44:41;100025.31;;;8.96;100.00
54042;BME280;41156;51.508;5.406;2022-12-29T07:47:42;100028.00;;;8.96;100.00
54042;BME280;41156;51.508;5.406;2022-12-29T07:50:42;100026.97;;;8.97;100.00
54042;BME280;41156;51.508;5.406;2022-12-29T07:53:43;100011.97;;;9.01;100.00
54042;BME280;41156;51.508;5.406;2022-12-29T07:56:44;100024.19;;;9.03;100.00
54042;BME280;41156;51.508;5.406;2022-12-29T07:59:44;100016.69;;;9.05;100.00
54042;BME280;41156;51.508;5.406;2022-12-29T08:02:44;100008.97;;;9.09;100.00
54042;BME280;41156;51.508;5.406;2022-12-29T08:05:45;100032.06;;;9.05;100.00
54042;BME280;41156;51.508;5.406;2022-12-29T08:08:45;100036.41;;;9.06;100.00
54042;BME280;41156;51.508;5.406;2022-12-29T08:11:45;100034.44;;;9.13;100.00
54042;BME280;41156;51.508;5.406;2022-12-29T08:14:45;100028.00;;;9.14;100.00
54042;BME280;41156;51.508;5.406;2022-12-29T08:17:46;100033.84;;;9.11;100.00
54042;BME280;41156;51.508;5.406;2022-12-29T08:20:46;100045.09;;;9.08;100.00
54042;BME280;41156;51.508;5.406;2022-12-29T08:23:47;100036.41;;;9.06;100.00
54042;BME280;41156;51.508;5.406;2022-12-29T08:26:48;100037.22;;;9.06;100.00
54042;BME280;41156;51.508;5.406;2022-12-29T08:29:48;100045.81;;;9.15;100.00
54042;BME280;41156;51.508;5.406;2022-12-29T08:32:48;100039.16;;;9.18;100.00
54042;BME280;41156;51.508;5.406;2022-12-29T08:35:49;100037.66;;;9.22;100.00
54042;BME280;41156;51.508;5.406;2022-12-29T08:38:49;100051.06;;;9.29;100.00
54042;BME280;41156;51.508;5.406;2022-12-29T08:41:49;100046.41;;;9.36;100.00
54042;BME280;41156;51.508;5.406;2022-12-29T08:44:50;100036.00;;;9.39;100.00
54042;BME280;41156;51.508;5.406;2022-12-29T08:47:50;100048.56;;;9.45;100.00
54042;BME280;41156;51.508;5.406;2022-12-29T08:50:50;100040.59;;;9.51;100.00
54042;BME280;41156;51.508;5.406;2022-12-29T08:53:51;100049.91;;;9.55;100.00
54042;BME280;41156;51.508;5.406;2022-12-29T08:56:51;100047.00;;;9.56;100.00
54042;BME280;41156;51.508;5.406;2022-12-29T08:59:51;100059.25;;;9.52;100.00
54042;BME280;41156;51.508;5.406;2022-12-29T09:02:52;100043.09;;;9.52;100.00
54042;BME280;41156;51.508;5.406;2022-12-29T09:05:53;100044.38;;;9.50;100.00
54042;BME280;41156;51.508;5.406;2022-12-29T09:08:54;100049.53;;;9.51;100.00
54042;BME280;41156;51.508;5.406;2022-12-29T09:11:55;100072.66;;;9.59;100.00
54042;BME280;41156;51.508;5.406;2022-12-29T09:14:56;100064.34;;;9.60;100.00
54042;BME280;41156;51.508;5.406;2022-12-29T09:17:57;100083.22;;;9.60;100.00
54042;BME280;41156;51.508;5.406;2022-12-29T09:20:59;100072.06;;;9.57;100.00
54042;BME280;41156;51.508;5.406;2022-12-29T09:23:59;100071.72;;;9.53;100.00
54042;BME280;41156;51.508;5.406;2022-12-29T09:27:00;100081.38;;;9.42;100.00
54042;BME280;41156;51.508;5.406;2022-12-29T09:30:00;100091.66;;;9.34;100.00
54042;BME280;41156;51.508;5.406;2022-12-29T09:33:01;100087.69;;;9.36;100.00
54042;BME280;41156;51.508;5.406;2022-12-29T09:36:02;100096.22;;;9.33;100.00
54042;BME280;41156;51.508;5.406;2022-12-29T09:39:03;100099.13;;;9.32;100.00
54042;BME280;41156;51.508;5.406;2022-12-29T09:45:26;100099.28;;;9.37;100.00
54042;BME280;41156;51.508;5.406;2022-12-29T09:48:33;100112.47;;;9.45;100.00
54042;BME280;41156;51.508;5.406;2022-12-29T09:51:36;100112.84;;;9.49;100.00
54042;BME280;41156;51.508;5.406;2022-12-29T10:00:52;100146.41;;;9.34;100.00
54042;BME280;41156;51.508;5.406;2022-12-29T10:03:58;100134.25;;;9.25;100.00
54042;BME280;41156;51.508;5.406;2022-12-29T10:07:04;100149.00;;;9.22;100.00
54042;BME280;41156;51.508;5.406;2022-12-29T10:10:22;100162.47;;;9.22;100.00
54042;BME280;41156;51.508;5.406;2022-12-29T10:13:33;100158.06;;;9.10;100.00
54042;BME280;41156;51.508;5.406;2022-12-29T10:16:51;100181.94;;;9.06;100.00
54042;BME280;41156;51.508;5.406;2022-12-29T10:20:14;100184.69;;;8.99;100.00
54042;BME280;41156;51.508;5.406;2022-12-29T10:26:31;100198.66;;;8.89;100.00
54042;BME280;41156;51.508;5.406;2022-12-29T10:29:37;100189.28;;;8.92;100.00
54042;BME280;41156;51.508;5.406;2022-12-29T10:32:45;100195.56;;;8.86;100.00
54042;BME280;41156;51.508;5.406;2022-12-29T10:35:46;100209.88;;;8.86;100.00
54042;BME280;41156;51.508;5.406;2022-12-29T10:38:57;100209.88;;;8.86;100.00
54042;BME280;41156;51.508;5.406;2022-12-29T10:42:09;100215.69;;;8.83;100.00
54042;BME280;41156;51.508;5.406;2022-12-29T10:45:13;100221.06;;;8.83;100.00
54042;BME280;41156;51.508;5.406;2022-12-29T10:48:24;100224.97;;;8.87;100.00
54042;BME280;41156;51.508;5.406;2022-12-29T10:51:41;100226.19;;;8.92;100.00
54042;BME280;41156;51.508;5.406;2022-12-29T10:55:15;100241.09;;;8.94;100.00
54042;BME280;41156;51.508;5.406;2022-12-29T10:58:18;100245.81;;;8.99;100.00
54042;BME280;41156;51.508;5.406;2022-12-29T11:01:18;100241.72;;;8.96;100.00
54042;BME280;41156;51.508;5.406;2022-12-29T11:04:55;100243.81;;;8.87;100.00
54042;BME280;41156;51.508;5.406;2022-12-29T11:08:02;100244.72;;;8.81;100.00
54042;BME280;41156;51.508;5.406;2022-12-29T11:11:09;100264.22;;;8.77;100.00
54042;BME280;41156;51.508;5.406;2022-12-29T11:14:26;100259.47;;;8.72;100.00
54042;BME280;41156;51.508;5.406;2022-12-29T11:17:26;100259.47;;;8.72;100.00
54042;BME280;41156;51.508;5.406;2022-12-29T11:20:35;100262.19;;;8.72;100.00
54042;BME280;41156;51.508;5.406;2022-12-29T11:23:40;100259.47;;;8.72;100.00
54042;BME280;41156;51.508;5.406;2022-12-29T11:26:43;100260.50;;;8.78;100.00
54042;BME280;41156;51.508;5.406;2022-12-29T11:29:44;100272.88;;;8.85;100.00
54042;BME280;41156;51.508;5.406;2022-12-29T11:32:51;100274.47;;;8.93;100.00
54042;BME280;41156;51.508;5.406;2022-12-29T11:35:57;100281.25;;;9.02;100.00
54042;BME280;41156;51.508;5.406;2022-12-29T11:38:58;100277.72;;;9.02;100.00
54042;BME280;41156;51.508;5.406;2022-12-29T11:41:59;100270.03;;;9.05;100.00
54042;BME280;41156;51.508;5.406;2022-12-29T11:45:21;100289.97;;;9.04;100.00
54042;BME280;41156;51.508;5.406;2022-12-29T11:48:22;100289.75;;;9.06;100.00
54042;BME280;41156;51.508;5.406;2022-12-29T11:51:30;100283.88;;;9.09;100.00
54042;BME280;41156;51.508;5.406;2022-12-29T11:54:36;100296.34;;;9.10;100.00
54042;BME280;41156;51.508;5.406;2022-12-29T11:57:41;100311.25;;;9.13;100.00
54042;BME280;41156;51.508;5.406;2022-12-29T12:00:42;100309.13;;;9.21;100.00
54042;BME280;41156;51.508;5.406;2022-12-29T12:03:48;100302.44;;;9.24;100.00
54042;BME280;41156;51.508;5.406;2022-12-29T12:07:13;100299.53;;;9.25;100.00
54042;BME280;41156;51.508;5.406;2022-12-29T12:10:19;100284.78;;;9.28;100.00
54042;BME280;41156;51.508;5.406;2022-12-29T12:16:41;100299.41;;;9.39;100.00
54042;BME280;41156;51.508;5.406;2022-12-29T12:19:48;100289.84;;;9.43;100.00
54042;BME280;41156;51.508;5.406;2022-12-29T12:23:13;100304.38;;;9.42;100.00
54042;BME280;41156;51.508;5.406;2022-12-29T12:26:18;100301.47;;;9.43;100.00
54042;BME280;41156;51.508;5.406;2022-12-29T12:33:03;100298.50;;;9.52;100.00
54042;BME280;41156;51.508;5.406;2022-12-29T12:49:43;100299.69;;;9.81;100.00
54042;BME280;41156;51.508;5.406;2022-12-29T12:53:01;100310.25;;;9.82;100.00
54042;BME280;41156;51.508;5.406;2022-12-29T12:56:19;100326.44;;;9.82;100.00
54042;BME280;41156;51.508;5.406;2022-12-29T12:59:36;100311.50;;;9.80;100.00
54042;BME280;41156;51.508;5.406;2022-12-29T13:12:51;100323.75;;;9.57;100.00
54042;BME280;41156;51.508;5.406;2022-12-29T13:19:25;100334.09;;;9.35;100.00
54042;BME280;41156;51.508;5.406;2022-12-29T13:25:41;100356.44;;;9.11;100.00
54042;BME280;41156;51.508;5.406;2022-12-29T13:29:22;100348.66;;;8.96;100.00
54042;BME280;41156;51.508;5.406;2022-12-29T13:35:57;100359.97;;;8.79;100.00
54042;BME280;41156;51.508;5.406;2022-12-29T13:39:08;100367.41;;;8.77;100.00
54042;BME280;41156;51.508;5.406;2022-12-29T13:42:11;100360.81;;;8.73;100.00
54042;BME280;41156;51.508;5.406;2022-12-29T13:45:19;100363.31;;;8.68;100.00
54042;BME280;41156;51.508;5.406;2022-12-29T13:48:26;100364.78;;;8.64;100.00
54042;BME280;41156;51.508;5.406;2022-12-29T13:51:29;100361.91;;;8.59;100.00
54042;BME280;41156;51.508;5.406;2022-12-29T13:54:39;100357.56;;;8.58;100.00
54042;BME280;41156;51.508;5.406;2022-12-29T13:57:59;100359.63;;;8.56;100.00
54042;BME280;41156;51.508;5.406;2022-12-29T14:01:08;100372.91;;;8.50;100.00
54042;BME280;41156;51.508;5.406;2022-12-29T14:04:16;100370.63;;;8.47;100.00
54042;BME280;41156;51.508;5.406;2022-12-29T14:07:20;100364.44;;;8.47;100.00
54042;BME280;41156;51.508;5.406;2022-12-29T14:10:28;100367.94;;;8.47;100.00
54042;BME280;41156;51.508;5.406;2022-12-29T14:13:29;100367.13;;;8.47;100.00
54042;BME280;41156;51.508;5.406;2022-12-29T14:16:32;100376.88;;;8.48;100.00
54042;BME280;41156;51.508;5.406;2022-12-29T14:19:38;100383.69;;;8.50;100.00
54042;BME280;41156;51.508;5.406;2022-12-29T14:22:42;100375.00;;;8.48;100.00
54042;BME280;41156;51.508;5.406;2022-12-29T14:26:09;100363.41;;;8.48;100.00
54042;BME280;41156;51.508;5.406;2022-12-29T14:35:39;100389.09;;;8.44;100.00
54042;BME280;41156;51.508;5.406;2022-12-29T14:38:44;100374.81;;;8.43;100.00
54042;BME280;41156;51.508;5.406;2022-12-29T14:41:45;100380.81;;;8.45;100.00
54042;BME280;41156;51.508;5.406;2022-12-29T14:44:57;100383.50;;;8.45;100.00
54042;BME280;41156;51.508;5.406;2022-12-29T14:48:00;100395.09;;;8.46;100.00
54042;BME280;41156;51.508;5.406;2022-12-29T14:51:00;100396.13;;;8.45;100.00
54042;BME280;41156;51.508;5.406;2022-12-29T14:54:34;100403.41;;;8.44;100.00
54042;BME280;41156;51.508;5.406;2022-12-29T14:57:42;100404.81;;;8.40;100.00
54042;BME280;41156;51.508;5.406;2022-12-29T15:00:44;100401.09;;;8.41;100.00
54042;BME280;41156;51.508;5.406;2022-12-29T15:03:48;100407.50;;;8.40;100.00
54042;BME280;41156;51.508;5.406;2022-12-29T15:06:51;100404.22;;;8.38;100.00
54042;BME280;41156;51.508;5.406;2022-12-29T15:09:58;100405.22;;;8.37;100.00
54042;BME280;41156;51.508;5.406;2022-12-29T15:13:04;100411.88;;;8.34;100.00
54042;BME280;41156;51.508;5.406;2022-12-29T15:16:29;100409.81;;;8.30;100.00
54042;BME280;41156;51.508;5.406;2022-12-29T15:19:29;100413.53;;;8.29;100.00
54042;BME280;41156;51.508;5.406;2022-12-29T15:22:30;100412.91;;;8.27;100.00
54042;BME280;41156;51.508;5.406;2022-12-29T15:25:31;100423.28;;;8.23;100.00
54042;BME280;41156;51.508;5.406;2022-12-29T15:28:39;100427.63;;;8.18;100.00
54042;BME280;41156;51.508;5.406;2022-12-29T15:31:46;100425.78;;;8.11;100.00
54042;BME280;41156;51.508;5.406;2022-12-29T15:34:51;100425.59;;;8.06;100.00
54042;BME280;41156;51.508;5.406;2022-12-29T15:37:52;100429.31;;;8.05;100.00
54042;BME280;41156;51.508;5.406;2022-12-29T15:41:40;100436.16;;;8.01;100.00
54042;BME280;41156;51.508;5.406;2022-12-29T15:45:03;100422.25;;;7.97;100.00
54042;BME280;41156;51.508;5.406;2022-12-29T15:48:05;100428.09;;;7.94;100.00
54042;BME280;41156;51.508;5.406;2022-12-29T15:51:17;100433.03;;;7.91;100.00
54042;BME280;41156;51.508;5.406;2022-12-29T15:54:21;100432.63;;;7.87;100.00
54042;BME280;41156;51.508;5.406;2022-12-29T15:57:28;100427.66;;;7.77;100.00
54042;BME280;41156;51.508;5.406;2022-12-29T16:00:35;100444.22;;;7.74;100.00
54042;BME280;41156;51.508;5.406;2022-12-29T16:03:37;100463.66;;;7.70;100.00
54042;BME280;41156;51.508;5.406;2022-12-29T16:06:39;100463.25;;;7.66;100.00
54042;BME280;41156;51.508;5.406;2022-12-29T16:09:44;100462.00;;;7.62;100.00
54042;BME280;41156;51.508;5.406;2022-12-29T16:12:44;100464.06;;;7.60;100.00
54042;BME280;41156;51.508;5.406;2022-12-29T16:15:46;100474.81;;;7.53;100.00
54042;BME280;41156;51.508;5.406;2022-12-29T16:18:47;100469.41;;;7.47;100.00
54042;BME280;41156;51.508;5.406;2022-12-29T16:21:47;100477.25;;;7.41;100.00
54042;BME280;41156;51.508;5.406;2022-12-29T16:24:48;100479.53;;;7.38;100.00
54042;BME280;41156;51.508;5.406;2022-12-29T16:27:49;100496.06;;;7.35;100.00
54042;BME280;41156;51.508;5.406;2022-12-29T16:30:58;100498.94;;;7.33;100.00
54042;BME280;41156;51.508;5.406;2022-12-29T16:34:19;100503.69;;;7.31;100.00
54042;BME280;41156;51.508;5.406;2022-12-29T16:37:32;100496.66;;;7.30;100.00
54042;BME280;41156;51.508;5.406;2022-12-29T16:40:33;100499.75;;;7.27;100.00
54042;BME280;41156;51.508;5.406;2022-12-29T16:43:36;100498.91;;;7.27;100.00
54042;BME280;41156;51.508;5.406;2022-12-29T16:50:12;100513.59;;;7.31;100.00
54042;BME280;41156;51.508;5.406;2022-12-29T16:53:23;100499.97;;;7.32;100.00
54042;BME280;41156;51.508;5.406;2022-12-29T16:56:26;100511.13;;;7.29;100.00
54042;BME280;41156;51.508;5.406;2022-12-29T16:59:32;100517.31;;;7.23;100.00
54042;BME280;41156;51.508;5.406;2022-12-29T17:02:33;100515.41;;;7.17;100.00
54042;BME280;41156;51.508;5.406;2022-12-29T17:05:34;100511.88;;;7.10;100.00
54042;BME280;41156;51.508;5.406;2022-12-29T17:08:40;100513.50;;;7.04;100.00
54042;BME280;41156;51.508;5.406;2022-12-29T17:11:41;100526.91;;;6.97;100.00
54042;BME280;41156;51.508;5.406;2022-12-29T17:15:00;100518.41;;;6.94;100.00
54042;BME280;41156;51.508;5.406;2022-12-29T17:18:01;100532.44;;;6.89;100.00
54042;BME280;41156;51.508;5.406;2022-12-29T17:21:01;100529.50;;;6.84;100.00
54042;BME280;41156;51.508;5.406;2022-12-29T17:24:02;100531.16;;;6.78;100.00
54042;BME280;41156;51.508;5.406;2022-12-29T17:27:04;100541.03;;;6.71;100.00
54042;BME280;41156;51.508;5.406;2022-12-29T17:30:13;100541.59;;;6.66;100.00
54042;BME280;41156;51.508;5.406;2022-12-29T17:33:19;100555.81;;;6.60;100.00
54042;BME280;41156;51.508;5.406;2022-12-29T17:36:20;100552.06;;;6.55;100.00